createdAt,value
2018-11-11T00:00:54.593Z,99913.00
2018-11-11T00:02:00.144Z,99915.87
2018-11-11T00:03:06.017Z,99909.44
2018-11-11T00:04:11.521Z,99908.22
2018-11-11T00:05:17.077Z,99909.51
2018-11-11T00:06:22.749Z,99910.27
2018-11-11T00:07:28.214Z,99911.55
2018-11-11T00:08:33.726Z,99906.94
2018-11-11T00:09:39.184Z,99902.78
2018-11-11T00:10:44.690Z,99902.45
2018-11-11T00:11:50.158Z,99902.39
2018-11-11T00:12:55.789Z,99905.81
2018-11-11T00:14:01.324Z,99899.45
2018-11-11T00:15:09.965Z,99899.12
2018-11-11T00:16:15.392Z,99900.47
2018-11-11T00:17:20.816Z,99905.61
2018-11-11T00:18:26.265Z,99896.26
2018-11-11T00:19:31.777Z,99900.67
2018-11-11T00:20:37.205Z,99897.84
2018-11-11T00:21:42.674Z,99903.84
2018-11-11T00:22:48.113Z,99905.61
2018-11-11T00:23:53.761Z,99899.29
2018-11-11T00:24:59.188Z,99896.95
2018-11-11T00:26:04.772Z,99896.62
2018-11-11T00:27:10.309Z,99896.19
2018-11-11T00:28:15.770Z,99894.67
2018-11-11T00:29:22.447Z,99903.44
2018-11-11T00:30:27.993Z,99911.08
2018-11-11T00:31:33.379Z,99904.66
2018-11-11T00:32:38.857Z,99910.43
2018-11-11T00:33:44.358Z,99911.31
2018-11-11T00:34:49.842Z,99911.31
2018-11-11T00:35:55.281Z,99909.80
2018-11-11T00:37:00.880Z,99916.98
2018-11-11T00:38:06.386Z,99922.13
2018-11-11T00:39:12.072Z,99922.25
2018-11-11T00:40:17.704Z,99919.25
2018-11-11T00:41:23.073Z,99919.79
2018-11-11T00:42:28.570Z,99920.25
2018-11-11T00:43:34.063Z,99923.64
2018-11-11T00:44:39.525Z,99918.90
2018-11-11T00:45:44.938Z,99905.52
2018-11-11T00:46:50.477Z,99907.86
2018-11-11T00:47:56.106Z,99908.69
2018-11-11T00:49:01.483Z,99907.92
2018-11-11T00:50:08.796Z,99905.02
2018-11-11T00:51:14.201Z,99898.70
2018-11-11T00:52:19.624Z,99907.36
2018-11-11T00:53:25.041Z,99902.75
2018-11-11T00:54:30.429Z,99904.09
2018-11-11T00:55:39.404Z,99899.42
2018-11-11T00:56:44.884Z,99895.06
2018-11-11T00:57:50.317Z,99892.06
2018-11-11T00:58:55.740Z,99892.19
2018-11-11T01:00:01.187Z,99901.58
2018-11-11T01:01:07.020Z,99891.89
2018-11-11T01:02:12.465Z,99901.19
2018-11-11T01:03:17.889Z,99901.90
2018-11-11T01:04:23.313Z,99897.98
2018-11-11T01:05:28.710Z,99898.16
2018-11-11T01:06:34.194Z,99903.45
2018-11-11T01:07:40.590Z,99902.59
2018-11-11T01:08:46.064Z,99904.64
2018-11-11T01:09:51.599Z,99904.17
2018-11-11T01:10:57.072Z,99903.71
2018-11-11T01:12:02.558Z,99905.52
2018-11-11T01:13:08.022Z,99908.84
2018-11-11T01:14:13.442Z,99904.47
2018-11-11T01:15:18.977Z,99910.83
2018-11-11T01:16:24.414Z,99903.19
2018-11-11T01:17:30.069Z,99907.38
2018-11-11T01:18:35.584Z,99902.83
2018-11-11T01:19:41.057Z,99900.91
2018-11-11T01:20:46.508Z,99898.63
2018-11-11T01:21:51.940Z,99899.09
2018-11-11T01:22:57.425Z,99900.31
2018-11-11T01:24:02.853Z,99904.53
2018-11-11T01:25:11.720Z,99898.27
2018-11-11T01:26:17.144Z,99902.48
2018-11-11T01:27:22.611Z,99893.95
2018-11-11T01:28:28.141Z,99895.89
2018-11-11T01:29:33.589Z,99898.98
2018-11-11T01:30:39.030Z,99895.72
2018-11-11T01:31:44.519Z,99903.36
2018-11-11T01:32:49.929Z,99899.50
2018-11-11T01:33:55.446Z,99905.92
2018-11-11T01:35:00.858Z,99900.39
2018-11-11T01:36:06.837Z,99904.19
2018-11-11T01:37:12.345Z,99898.69
2018-11-11T01:38:17.765Z,99897.77
2018-11-11T01:39:23.250Z,99898.92
2018-11-11T01:40:28.637Z,99897.63
2018-11-11T01:41:34.117Z,99893.33
2018-11-11T01:42:39.729Z,99894.37
2018-11-11T01:43:45.236Z,99893.33
2018-11-11T01:44:50.644Z,99898.80
2018-11-11T01:45:56.151Z,99895.37
2018-11-11T01:47:01.544Z,99900.91
2018-11-11T01:48:07.491Z,99906.28
2018-11-11T01:49:13.029Z,99899.39
2018-11-11T01:50:18.502Z,99901.90
2018-11-11T01:51:23.941Z,99899.86
2018-11-11T01:52:29.465Z,99901.53
2018-11-11T01:53:34.950Z,99897.98
2018-11-11T01:54:40.364Z,99909.94
2018-11-11T01:55:45.837Z,99906.61
2018-11-11T01:56:51.292Z,99905.33
2018-11-11T01:57:56.686Z,99908.13
2018-11-11T01:59:02.176Z,99908.83
2018-11-11T02:00:12.074Z,99898.31
2018-11-11T02:01:17.525Z,99905.92
2018-11-11T02:02:22.965Z,99905.34
2018-11-11T02:03:28.400Z,99905.44
2018-11-11T02:04:33.862Z,99905.34
2018-11-11T02:05:39.249Z,99903.10
2018-11-11T02:06:44.761Z,99901.16
2018-11-11T02:07:50.134Z,99900.83
2018-11-11T02:08:55.568Z,99904.15
2018-11-11T02:10:00.960Z,99898.48
2018-11-11T02:11:06.644Z,99902.23
2018-11-11T02:12:12.086Z,99907.44
2018-11-11T02:13:17.616Z,99906.98
2018-11-11T02:14:23.089Z,99905.33
2018-11-11T02:15:28.542Z,99906.61
2018-11-11T02:16:34.017Z,99904.93
2018-11-11T02:17:39.524Z,99909.48
2018-11-11T02:18:45.096Z,99907.56
2018-11-11T02:19:50.658Z,99909.67
2018-11-11T02:20:56.148Z,99906.67
2018-11-11T02:22:01.601Z,99913.22
2018-11-11T02:23:07.041Z,99908.61
2018-11-11T02:24:12.526Z,99916.44
2018-11-11T02:25:17.986Z,99913.05
2018-11-11T02:26:23.430Z,99914.33
2018-11-11T02:27:28.822Z,99910.08
2018-11-11T02:28:34.281Z,99905.28
2018-11-11T02:29:39.777Z,99908.56
2018-11-11T02:30:45.259Z,99910.24
2018-11-11T02:31:50.664Z,99908.80
2018-11-11T02:32:56.089Z,99912.59
2018-11-11T02:34:01.584Z,99898.86
2018-11-11T02:35:07.689Z,99901.25
2018-11-11T02:36:13.245Z,99901.19
2018-11-11T02:37:18.720Z,99893.09
2018-11-11T02:38:24.180Z,99894.44
2018-11-11T02:39:29.622Z,99897.06
2018-11-11T02:40:35.038Z,99884.16
2018-11-11T02:41:40.524Z,99885.51
2018-11-11T02:42:46.327Z,99891.50
2018-11-11T02:43:51.878Z,99882.64
2018-11-11T02:44:57.277Z,99887.71
2018-11-11T02:46:02.698Z,99887.84
2018-11-11T02:47:08.260Z,99889.06
2018-11-11T02:48:13.753Z,99887.97
2018-11-11T02:49:19.209Z,99896.59
2018-11-11T02:50:24.661Z,99891.45
2018-11-11T02:51:30.074Z,99899.67
2018-11-11T02:52:35.649Z,99900.05
2018-11-11T02:53:41.053Z,99898.52
2018-11-11T02:54:46.561Z,99899.86
2018-11-11T02:55:51.983Z,99896.41
2018-11-11T02:56:57.400Z,99894.03
2018-11-11T02:58:02.916Z,99901.27
2018-11-11T02:59:09.062Z,99900.91
2018-11-11T03:00:16.874Z,99900.50
2018-11-11T03:01:22.404Z,99898.86
2018-11-11T03:02:27.926Z,99904.48
2018-11-11T03:03:33.328Z,99903.53
2018-11-11T03:04:39.065Z,99904.48
2018-11-11T03:05:44.571Z,99901.09
2018-11-11T03:06:50.039Z,99903.13
2018-11-11T03:07:55.513Z,99896.34
2018-11-11T03:09:00.947Z,99893.45
2018-11-11T03:10:06.954Z,99897.45
2018-11-11T03:11:12.424Z,99897.88
2018-11-11T03:12:17.906Z,99896.59
2018-11-11T03:13:23.510Z,99899.56
2018-11-11T03:14:29.030Z,99895.71
2018-11-11T03:15:34.483Z,99894.36
2018-11-11T03:16:40.428Z,99897.45
2018-11-11T03:17:45.898Z,99891.41
2018-11-11T03:18:51.476Z,99890.33
2018-11-11T03:19:56.893Z,99887.13
2018-11-11T03:21:02.393Z,99887.13
2018-11-11T03:22:07.892Z,99893.55
2018-11-11T03:23:13.333Z,99896.17
2018-11-11T03:24:18.767Z,99900.02
2018-11-11T03:25:24.409Z,99898.03
2018-11-11T03:26:29.793Z,99895.41
2018-11-11T03:27:35.250Z,99898.80
2018-11-11T03:28:40.704Z,99892.72
2018-11-11T03:29:46.175Z,99893.84
2018-11-11T03:30:51.662Z,99896.11
2018-11-11T03:31:57.067Z,99887.19
2018-11-11T03:33:02.514Z,99884.92
2018-11-11T03:34:07.929Z,99885.78
2018-11-11T03:35:14.172Z,99890.86
2018-11-11T03:36:19.874Z,99888.13
2018-11-11T03:37:25.264Z,99887.77
2018-11-11T03:38:30.751Z,99887.83
2018-11-11T03:39:36.300Z,99883.86
2018-11-11T03:40:41.866Z,99883.34
2018-11-11T03:41:47.254Z,99881.98
2018-11-11T03:42:52.701Z,99889.36
2018-11-11T03:43:58.084Z,99884.22
2018-11-11T03:45:03.617Z,99883.45
2018-11-11T03:46:09.098Z,99890.58
2018-11-11T03:47:14.501Z,99885.84
2018-11-11T03:48:19.991Z,99892.56
2018-11-11T03:49:25.409Z,99891.03
2018-11-11T03:50:30.864Z,99895.83
2018-11-11T03:51:36.273Z,99896.88
2018-11-11T03:52:42.031Z,99900.60
2018-11-11T03:53:47.478Z,99902.41
2018-11-11T03:54:52.885Z,99896.75
2018-11-11T03:55:58.317Z,99897.17
2018-11-11T03:57:03.804Z,99901.61
2018-11-11T03:58:09.230Z,99894.95
2018-11-11T03:59:14.645Z,99902.00
2018-11-11T04:00:20.170Z,99901.18
2018-11-11T04:01:25.600Z,99895.73
2018-11-11T04:02:31.013Z,99906.19
2018-11-11T04:03:36.417Z,99899.01
2018-11-11T04:04:41.802Z,99891.80
2018-11-11T04:05:47.360Z,99896.16
2018-11-11T04:06:52.779Z,99897.79
2018-11-11T04:08:03.798Z,99891.55
2018-11-11T04:09:12.402Z,99900.94
2018-11-11T04:10:19.034Z,99904.84
2018-11-11T04:11:24.445Z,99897.26
2018-11-11T04:12:29.954Z,99903.16
2018-11-11T04:13:35.628Z,99900.59
2018-11-11T04:14:41.121Z,99900.47
2018-11-11T04:15:46.590Z,99899.64
2018-11-11T04:16:52.017Z,99901.97
2018-11-11T04:17:57.414Z,99899.83
2018-11-11T04:19:02.825Z,99900.34
2018-11-11T04:20:11.658Z,99900.69
2018-11-11T04:21:17.249Z,99902.73
2018-11-11T04:22:22.721Z,99905.85
2018-11-11T04:23:28.261Z,99907.90
2018-11-11T04:24:33.687Z,99904.45
2018-11-11T04:25:39.154Z,99907.41
2018-11-11T04:26:44.668Z,99900.42
2018-11-11T04:27:50.133Z,99900.42
2018-11-11T04:28:55.724Z,99902.00
2018-11-11T04:30:01.150Z,99900.66
2018-11-11T04:31:07.513Z,99906.16
2018-11-11T04:32:12.917Z,99902.25
2018-11-11T04:33:18.341Z,99903.35
2018-11-11T04:34:23.810Z,99901.09
2018-11-11T04:35:29.209Z,99903.13
2018-11-11T04:36:34.625Z,99903.02
2018-11-11T04:37:40.079Z,99905.18
2018-11-11T04:38:45.519Z,99904.70
2018-11-11T04:39:50.962Z,99908.84
2018-11-11T04:40:56.423Z,99903.31
2018-11-11T04:42:01.992Z,99903.65
2018-11-11T04:43:07.436Z,99906.92
2018-11-11T04:44:12.909Z,99899.22
2018-11-11T04:45:18.486Z,99899.28
2018-11-11T04:46:24.012Z,99899.73
2018-11-11T04:47:29.516Z,99899.92
2018-11-11T04:48:35.002Z,99883.22
2018-11-11T04:49:40.473Z,99884.45
2018-11-11T04:50:45.964Z,99890.41
2018-11-11T04:51:51.365Z,99901.27
2018-11-11T04:52:56.806Z,99896.89
2018-11-11T04:54:02.237Z,99901.08
2018-11-11T04:55:08.252Z,99891.17
2018-11-11T04:56:13.688Z,99899.27
2018-11-11T04:57:19.139Z,99885.27
2018-11-11T04:58:24.585Z,99898.57
2018-11-11T04:59:30.001Z,99899.00
2018-11-11T05:00:35.442Z,99899.98
2018-11-11T05:01:40.948Z,99896.95
2018-11-11T05:02:46.436Z,99898.62
2018-11-11T05:03:51.886Z,99892.45
2018-11-11T05:04:57.392Z,99898.28
2018-11-11T05:06:02.868Z,99899.57
2018-11-11T05:07:08.942Z,99895.66
2018-11-11T05:08:14.495Z,99905.11
2018-11-11T05:09:19.935Z,99901.37
2018-11-11T05:10:25.446Z,99906.12
2018-11-11T05:11:30.998Z,99906.97
2018-11-11T05:12:36.877Z,99904.83
2018-11-11T05:13:42.346Z,99913.52
2018-11-11T05:14:47.778Z,99914.28
2018-11-11T05:15:53.227Z,99906.75
2018-11-11T05:16:58.668Z,99908.10
2018-11-11T05:18:04.239Z,99912.13
2018-11-11T05:19:10.725Z,99909.06
2018-11-11T05:20:16.145Z,99907.56
2018-11-11T05:21:21.661Z,99913.03
2018-11-11T05:22:27.250Z,99912.11
2018-11-11T05:23:32.902Z,99909.55
2018-11-11T05:24:38.290Z,99908.22
2018-11-11T05:25:43.756Z,99914.70
2018-11-11T05:26:49.200Z,99916.20
2018-11-11T05:27:54.676Z,99921.97
2018-11-11T05:29:00.114Z,99919.70
2018-11-11T05:30:06.881Z,99920.93
2018-11-11T05:31:12.467Z,99927.54
2018-11-11T05:32:18.025Z,99921.97
2018-11-11T05:33:23.522Z,99920.36
2018-11-11T05:34:28.957Z,99925.37
2018-11-11T05:35:34.400Z,99922.92
2018-11-11T05:36:39.793Z,99920.30
2018-11-11T05:37:45.335Z,99915.03
2018-11-11T05:38:50.731Z,99915.27
2018-11-11T05:39:56.194Z,99919.83
2018-11-11T05:41:01.729Z,99912.52
2018-11-11T05:42:07.268Z,99911.24
2018-11-11T05:43:12.953Z,99921.33
2018-11-11T05:44:18.405Z,99926.00
2018-11-11T05:45:23.829Z,99923.20
2018-11-11T05:46:29.302Z,99925.37
2018-11-11T05:47:34.685Z,99926.00
2018-11-11T05:48:40.081Z,99921.56
2018-11-11T05:49:45.506Z,99922.22
2018-11-11T05:50:50.980Z,99928.34
2018-11-11T05:51:56.405Z,99927.17
2018-11-11T05:53:01.795Z,99925.43
2018-11-11T05:54:07.257Z,99921.52
2018-11-11T05:55:12.749Z,99917.08
2018-11-11T05:56:18.202Z,99921.91
2018-11-11T05:57:23.726Z,99926.59
2018-11-11T05:58:29.164Z,99925.24
2018-11-11T05:59:34.529Z,99921.97
2018-11-11T06:00:40.090Z,99925.13
2018-11-11T06:01:45.547Z,99924.48
2018-11-11T06:02:51.004Z,99928.17
2018-11-11T06:03:56.460Z,99923.73
2018-11-11T06:05:01.846Z,99925.67
2018-11-11T06:06:08.032Z,99922.52
2018-11-11T06:07:13.455Z,99922.45
2018-11-11T06:08:18.940Z,99922.98
2018-11-11T06:09:24.360Z,99931.71
2018-11-11T06:10:29.802Z,99925.37
2018-11-11T06:11:35.237Z,99927.17
2018-11-11T06:12:40.760Z,99923.33
2018-11-11T06:13:46.170Z,99921.97
2018-11-11T06:14:51.664Z,99929.05
2018-11-11T06:15:57.086Z,99925.19
2018-11-11T06:17:02.492Z,99926.88
2018-11-11T06:18:08.030Z,99929.74
2018-11-11T06:19:13.511Z,99926.95
2018-11-11T06:20:18.940Z,99925.43
2018-11-11T06:21:24.341Z,99925.43
2018-11-11T06:22:29.791Z,99927.76
2018-11-11T06:23:35.210Z,99932.01
2018-11-11T06:24:40.785Z,99928.98
2018-11-11T06:25:46.292Z,99934.05
2018-11-11T06:26:51.789Z,99939.95
2018-11-11T06:27:57.218Z,99931.91
2018-11-11T06:29:02.648Z,99932.55
2018-11-11T06:30:09.498Z,99929.92
2018-11-11T06:31:15.062Z,99938.91
2018-11-11T06:32:20.568Z,99926.95
2018-11-11T06:33:26.049Z,99931.60
2018-11-11T06:34:31.543Z,99931.91
2018-11-11T06:35:36.989Z,99940.50
2018-11-11T06:36:42.521Z,99934.59
2018-11-11T06:37:47.926Z,99935.69
2018-11-11T06:38:53.381Z,99935.36
2018-11-11T06:39:58.850Z,99936.22
2018-11-11T06:41:04.321Z,99936.22
2018-11-11T06:42:09.850Z,99931.08
2018-11-11T06:43:15.269Z,99939.31
2018-11-11T06:44:20.722Z,99940.20
2018-11-11T06:45:26.167Z,99935.13
2018-11-11T06:46:31.644Z,99938.97
2018-11-11T06:47:37.261Z,99941.48
2018-11-11T06:48:42.701Z,99933.53
2018-11-11T06:49:48.170Z,99943.28
2018-11-11T06:50:53.560Z,99938.91
2018-11-11T06:51:59.008Z,99936.04
2018-11-11T06:53:04.498Z,99940.32
2018-11-11T06:54:10.070Z,99943.41
2018-11-11T06:55:15.539Z,99945.39
2018-11-11T06:56:21.026Z,99942.89
2018-11-11T06:57:26.473Z,99946.80
2018-11-11T06:58:32.172Z,99945.73
2018-11-11T06:59:37.592Z,99949.13
2018-11-11T07:00:43.060Z,99945.09
2018-11-11T07:01:48.489Z,99945.22
2018-11-11T07:03:10.950Z,99957.30
2018-11-11T07:04:16.416Z,99959.56
2018-11-11T07:05:21.856Z,99957.05
2018-11-11T07:06:27.786Z,99961.09
2018-11-11T07:07:33.276Z,99956.53
2018-11-11T07:08:38.689Z,99958.64
2018-11-11T07:09:44.309Z,99959.28
2018-11-11T07:10:49.732Z,99960.38
2018-11-11T07:11:55.447Z,99963.66
2018-11-11T07:13:00.901Z,99962.06
2018-11-11T07:14:06.431Z,99964.58
2018-11-11T07:15:11.785Z,99964.63
2018-11-11T07:16:17.217Z,99960.78
2018-11-11T07:17:22.740Z,99969.06
2018-11-11T07:18:28.168Z,99968.85
2018-11-11T07:19:33.613Z,99967.78
2018-11-11T07:20:39.056Z,99967.56
2018-11-11T07:21:44.560Z,99969.38
2018-11-11T07:22:49.997Z,99967.84
2018-11-11T07:23:55.494Z,99976.01
2018-11-11T07:25:00.933Z,99969.77
2018-11-11T07:26:06.641Z,99970.14
2018-11-11T07:27:12.053Z,99968.03
2018-11-11T07:28:17.529Z,99972.40
2018-11-11T07:29:23.047Z,99976.01
2018-11-11T07:30:28.541Z,99978.42
2018-11-11T07:31:34.004Z,99985.61
2018-11-11T07:32:39.458Z,99984.47
2018-11-11T07:33:44.923Z,99979.02
2018-11-11T07:34:50.315Z,99985.25
2018-11-11T07:35:55.842Z,99990.12
2018-11-11T07:37:01.262Z,99985.29
2018-11-11T07:38:07.019Z,99992.17
2018-11-11T07:39:14.113Z,99995.31
2018-11-11T07:40:19.550Z,99989.53
2018-11-11T07:41:24.968Z,99990.69
2018-11-11T07:42:30.517Z,99988.77
2018-11-11T07:43:36.321Z,99990.00
2018-11-11T07:44:41.829Z,99991.59
2018-11-11T07:45:47.549Z,99995.44
2018-11-11T07:46:53.010Z,99994.46
2018-11-11T07:47:58.537Z,99999.88
2018-11-11T07:49:03.889Z,99996.39
2018-11-11T07:50:11.149Z,100002.05
2018-11-11T07:51:16.681Z,100003.02
2018-11-11T07:52:22.150Z,100001.22
2018-11-11T07:53:27.677Z,100003.85
2018-11-11T07:54:33.198Z,100005.66
2018-11-11T07:55:38.628Z,100015.80
2018-11-11T07:56:44.092Z,100012.82
2018-11-11T07:57:49.589Z,100022.15
2018-11-11T07:58:55.053Z,100018.95
2018-11-11T08:00:00.582Z,100025.14
2018-11-11T08:01:06.557Z,100022.27
2018-11-11T08:02:12.142Z,100024.72
2018-11-11T08:03:20.036Z,100022.92
2018-11-11T08:04:25.457Z,100018.55
2018-11-11T08:05:33.330Z,100026.25
2018-11-11T08:06:39.282Z,100022.84
2018-11-11T08:07:45.419Z,100027.02
2018-11-11T08:08:51.813Z,100019.20
2018-11-11T08:09:58.082Z,100020.02
2018-11-11T08:11:20.959Z,100019.68
2018-11-11T08:12:26.361Z,100026.67
2018-11-11T08:13:31.844Z,100029.95
2018-11-11T08:14:37.342Z,100024.96
2018-11-11T08:15:43.101Z,100026.11
2018-11-11T08:16:48.594Z,100034.38
2018-11-11T08:17:54.097Z,100030.78
2018-11-11T08:18:59.781Z,100033.23
2018-11-11T08:20:05.818Z,100033.55
2018-11-11T08:21:11.291Z,100038.68
2018-11-11T08:22:17.057Z,100038.42
2018-11-11T08:23:22.829Z,100039.30
2018-11-11T08:24:28.470Z,100040.48
2018-11-11T08:25:34.206Z,100042.22
2018-11-11T08:26:39.778Z,100045.20
2018-11-11T08:27:45.318Z,100043.09
2018-11-11T08:28:51.085Z,100038.99
2018-11-11T08:29:56.535Z,100037.25
2018-11-11T08:31:02.086Z,100038.54
2018-11-11T08:32:08.315Z,100035.52
2018-11-11T08:33:13.776Z,100041.50
2018-11-11T08:34:19.221Z,100039.19
2018-11-11T08:35:24.632Z,100037.85
2018-11-11T08:36:30.100Z,100039.66
2018-11-11T08:37:35.566Z,100040.08
2018-11-11T08:38:41.029Z,100043.19
2018-11-11T08:39:46.495Z,100038.30
2018-11-11T08:40:51.982Z,100037.65
2018-11-11T08:41:57.476Z,100049.00
2018-11-11T08:43:02.916Z,100038.16
2018-11-11T08:44:08.766Z,100036.36
2018-11-11T08:45:14.997Z,100042.36
2018-11-11T08:46:20.441Z,100042.07
2018-11-11T08:47:26.030Z,100037.36
2018-11-11T08:48:31.621Z,100045.78
2018-11-11T08:49:37.203Z,100045.03
2018-11-11T08:50:42.774Z,100053.97
2018-11-11T08:51:48.292Z,100045.55
2018-11-11T08:52:53.938Z,100044.06
2018-11-11T08:53:59.585Z,100040.56
2018-11-11T08:55:05.677Z,100053.39
2018-11-11T08:56:11.369Z,100049.91
2018-11-11T08:57:16.830Z,100050.37
2018-11-11T08:58:22.512Z,100052.77
2018-11-11T08:59:27.986Z,100054.76
2018-11-11T09:00:36.864Z,100054.81
2018-11-11T09:01:43.321Z,100049.73
2018-11-11T09:02:48.841Z,100056.41
2018-11-11T09:03:54.458Z,100054.19
2018-11-11T09:05:01.366Z,100053.90
2018-11-11T09:06:07.150Z,100053.21
2018-11-11T09:07:12.771Z,100060.15
2018-11-11T09:08:18.365Z,100063.94
2018-11-11T09:09:24.146Z,100062.31
2018-11-11T09:10:29.678Z,100064.52
2018-11-11T09:11:35.228Z,100070.47
2018-11-11T09:12:40.641Z,100062.72
2018-11-11T09:13:46.538Z,100058.02
2018-11-11T09:14:52.190Z,100066.42
2018-11-11T09:15:57.814Z,100066.23
2018-11-11T09:17:03.325Z,100065.09
2018-11-11T09:18:08.784Z,100065.54
2018-11-11T09:19:14.228Z,100066.67
2018-11-11T09:20:19.913Z,100069.25
2018-11-11T09:21:25.667Z,100071.05
2018-11-11T09:22:31.400Z,100070.87
2018-11-11T09:23:36.983Z,100072.64
2018-11-11T09:24:42.576Z,100073.30
2018-11-11T09:25:48.213Z,100072.52
2018-11-11T09:26:53.848Z,100073.34
2018-11-11T09:27:59.374Z,100083.42
2018-11-11T09:29:05.000Z,100077.77
2018-11-11T09:30:13.479Z,100082.48
2018-11-11T09:31:18.977Z,100081.45
2018-11-11T09:32:24.671Z,100083.63
2018-11-11T09:33:30.314Z,100085.13
2018-11-11T09:34:36.365Z,100083.27
2018-11-11T09:35:41.987Z,100086.92
2018-11-11T09:36:47.496Z,100077.42
2018-11-11T09:37:52.937Z,100087.05
2018-11-11T09:38:58.511Z,100085.06
2018-11-11T09:40:04.539Z,100076.84
2018-11-11T09:41:10.374Z,100083.20
2018-11-11T09:42:16.084Z,100090.45
2018-11-11T09:43:21.630Z,100093.73
2018-11-11T09:44:27.198Z,100090.22
2018-11-11T09:45:32.692Z,100090.92
2018-11-11T09:46:38.288Z,100100.44
2018-11-11T09:47:44.166Z,100096.01
2018-11-11T09:48:49.865Z,100097.14
2018-11-11T09:49:55.375Z,100098.19
2018-11-11T09:51:00.828Z,100094.58
2018-11-11T09:52:06.506Z,100096.14
2018-11-11T09:53:11.965Z,100100.55
2018-11-11T09:54:17.532Z,100097.86
2018-11-11T09:55:22.960Z,100091.44
2018-11-11T09:56:28.665Z,100099.27
2018-11-11T09:57:34.284Z,100097.06
2018-11-11T09:58:39.912Z,100102.61
2018-11-11T09:59:45.559Z,100107.69
2018-11-11T10:00:50.988Z,100103.95
2018-11-11T10:01:56.717Z,100100.49
2018-11-11T10:03:10.087Z,100104.66
2018-11-11T10:04:24.524Z,100097.02
2018-11-11T10:07:43.427Z,100104.59
2018-11-11T10:08:52.586Z,100103.70
2018-11-11T10:10:37.685Z,100096.69
2018-11-11T10:11:46.817Z,100097.34
2018-11-11T10:13:11.109Z,100098.67
2018-11-11T10:14:21.929Z,100100.24
2018-11-11T10:16:35.257Z,100098.59
2018-11-11T10:17:45.485Z,100098.39
2018-11-11T10:18:55.967Z,100084.34
2018-11-11T10:20:12.223Z,100092.94
2018-11-11T10:21:28.695Z,100093.88
2018-11-11T10:22:45.669Z,100072.70
2018-11-11T10:24:09.157Z,100091.11
2018-11-11T10:25:18.635Z,100091.44
2018-11-11T10:26:38.174Z,100086.52
2018-11-11T10:27:53.207Z,100082.34
2018-11-11T10:29:04.036Z,100087.48
2018-11-11T10:30:15.265Z,100090.22
2018-11-11T10:31:31.513Z,100096.05
2018-11-11T10:34:46.169Z,100089.48
2018-11-11T10:35:55.218Z,100091.80
2018-11-11T10:37:34.698Z,100097.08
2018-11-11T10:38:45.307Z,100099.59
2018-11-11T10:40:01.796Z,100105.83
2018-11-11T10:41:12.014Z,100102.86
2018-11-11T10:42:22.625Z,100107.28
2018-11-11T10:43:59.400Z,100101.00
2018-11-11T10:45:10.417Z,100102.72
2018-11-11T10:46:22.439Z,100106.78
2018-11-11T10:47:33.417Z,100100.45
2018-11-11T10:48:43.798Z,100098.93
2018-11-11T10:50:07.539Z,100107.28
2018-11-11T10:51:13.692Z,100105.75
2018-11-11T10:52:19.242Z,100110.24
2018-11-11T10:53:24.726Z,100107.83
2018-11-11T10:54:30.332Z,100107.23
2018-11-11T10:55:35.866Z,100098.11
2018-11-11T10:56:41.473Z,100111.45
2018-11-11T10:57:46.869Z,100111.79
2018-11-11T10:58:52.321Z,100111.39
2018-11-11T10:59:57.861Z,100103.47
2018-11-11T11:01:13.173Z,100109.91
2018-11-11T11:02:19.484Z,100112.16
2018-11-11T11:03:31.368Z,100113.30
2018-11-11T11:04:40.924Z,100113.59
2018-11-11T11:05:46.652Z,100110.16
2018-11-11T11:06:57.450Z,100111.02
2018-11-11T11:08:03.382Z,100116.08
2018-11-11T11:09:14.437Z,100108.75
2018-11-11T11:10:20.070Z,100124.80
2018-11-11T11:11:25.546Z,100126.98
2018-11-11T11:12:31.022Z,100119.84
2018-11-11T11:13:36.674Z,100118.43
2018-11-11T11:14:41.964Z,100118.63
2018-11-11T11:15:47.502Z,100123.19
2018-11-11T11:16:52.937Z,100125.37
2018-11-11T11:17:58.320Z,100132.43
2018-11-11T11:19:03.778Z,100130.02
2018-11-11T11:20:09.422Z,100144.20
2018-11-11T11:21:14.989Z,100142.98
2018-11-11T11:22:20.420Z,100143.44
2018-11-11T11:23:25.930Z,100146.92
2018-11-11T11:24:31.364Z,100146.56
2018-11-11T11:25:36.830Z,100158.02
2018-11-11T11:26:42.317Z,100161.18
2018-11-11T11:27:47.765Z,100154.59
2018-11-11T11:28:53.186Z,100155.75
2018-11-11T11:29:58.768Z,100148.53
2018-11-11T11:31:04.242Z,100152.19
2018-11-11T11:32:09.977Z,100149.91
2018-11-11T11:33:15.397Z,100162.36
2018-11-11T11:34:20.852Z,100161.75
2018-11-11T11:35:26.368Z,100163.88
2018-11-11T11:36:31.757Z,100163.88
2018-11-11T11:37:37.421Z,100163.11
2018-11-11T11:38:42.877Z,100162.36
2018-11-11T11:39:48.319Z,100160.22
2018-11-11T11:40:53.773Z,100163.58
2018-11-11T11:41:59.186Z,100161.36
2018-11-11T11:43:04.660Z,100161.30
2018-11-11T11:44:10.108Z,100164.25
2018-11-11T11:45:15.500Z,100154.83
2018-11-11T11:46:27.244Z,100165.20
2018-11-11T11:47:32.740Z,100166.42
2018-11-11T11:48:38.086Z,100160.97
2018-11-11T11:49:43.595Z,100183.43
2018-11-11T11:50:49.104Z,100166.11
2018-11-11T11:51:54.618Z,100165.75
2018-11-11T11:53:00.234Z,100168.92
2018-11-11T11:54:05.776Z,100168.75
2018-11-11T11:55:12.006Z,100172.48
2018-11-11T11:56:17.538Z,100168.48
2018-11-11T11:57:23.900Z,100167.86
2018-11-11T11:58:30.370Z,100169.15
2018-11-11T11:59:36.132Z,100167.03
2018-11-11T12:00:41.626Z,100162.70
2018-11-11T12:01:47.012Z,100175.80
2018-11-11T12:02:52.680Z,100182.09
2018-11-11T12:03:58.129Z,100173.68
2018-11-11T12:05:03.649Z,100184.21
2018-11-11T12:06:09.085Z,100177.41
2018-11-11T12:07:14.507Z,100179.38
2018-11-11T12:08:20.096Z,100176.80
2018-11-11T12:09:25.630Z,100178.48
2018-11-11T12:10:31.150Z,100179.55
2018-11-11T12:11:36.632Z,100187.50
2018-11-11T12:12:42.118Z,100177.73
2018-11-11T12:13:47.557Z,100179.33
2018-11-11T12:14:53.015Z,100184.62
2018-11-11T12:15:58.422Z,100189.56
2018-11-11T12:17:03.917Z,100184.27
2018-11-11T12:18:09.301Z,100185.58
2018-11-11T12:19:14.737Z,100191.56
2018-11-11T12:20:20.168Z,100187.67
2018-11-11T12:21:25.586Z,100191.40
2018-11-11T12:22:31.009Z,100191.62
2018-11-11T12:23:36.478Z,100195.41
2018-11-11T12:24:41.940Z,100187.32
2018-11-11T12:25:47.421Z,100191.33
2018-11-11T12:26:52.868Z,100196.42
2018-11-11T12:27:58.558Z,100203.23
2018-11-11T12:29:04.006Z,100197.92
2018-11-11T12:30:10.632Z,100203.94
2018-11-11T12:31:16.164Z,100204.30
2018-11-11T12:32:21.565Z,100200.20
2018-11-11T12:33:26.965Z,100201.25
2018-11-11T12:34:32.496Z,100193.22
2018-11-11T12:35:37.981Z,100188.98
2018-11-11T12:36:43.653Z,100187.70
2018-11-11T12:37:49.136Z,100186.98
2018-11-11T12:38:54.642Z,100188.36
2018-11-11T12:40:00.180Z,100187.00
2018-11-11T12:41:06.182Z,100180.41
2018-11-11T12:42:11.594Z,100184.27
2018-11-11T12:43:17.096Z,100185.02
2018-11-11T12:44:22.485Z,100185.78
2018-11-11T12:45:27.968Z,100190.50
2018-11-11T12:46:33.425Z,100193.97
2018-11-11T12:47:38.804Z,100196.72
2018-11-11T12:48:44.400Z,100190.11
2018-11-11T12:49:49.817Z,100197.24
2018-11-11T12:50:55.254Z,100193.37
2018-11-11T12:52:00.665Z,100189.05
2018-11-11T12:53:06.160Z,100194.59
2018-11-11T12:54:11.614Z,100190.41